Index of /debian-ports/pool-hurd-i386/main/b

[ICO]NameLast modifiedSize

[PARENTDIR]Parent Directory  -
[DIR]babeltrace/2019-08-14 20:06 -
[DIR]babl/2019-04-21 21:42 -
[DIR]backuppc/2019-04-21 21:42 -
[DIR]bacula/2019-08-14 20:06 -
[DIR]baitfisher/2019-04-21 21:42 -
[DIR]balance/2019-04-21 21:42 -
[DIR]balder2d/2019-04-21 21:42 -
[DIR]bali-phy/2019-08-14 20:06 -
[DIR]ball/2019-04-22 01:32 -
[DIR]ballerburg/2019-04-21 21:42 -
[DIR]ballz/2019-04-21 21:42 -
[DIR]baloo/2019-08-14 20:06 -
[DIR]balsa/2019-04-21 21:42 -
[DIR]bam/2019-04-21 21:42 -
[DIR]bambamc/2019-04-21 21:42 -
[DIR]bambootracker/2019-07-07 20:25 -
[DIR]bamf/2019-04-21 21:42 -
[DIR]bamtools/2019-04-21 21:42 -
[DIR]bandage/2019-04-21 21:42 -
[DIR]bandwidthd/2019-04-21 21:42 -
[DIR]baobab/2019-04-21 21:42 -
[DIR]bar/2019-04-21 21:42 -
[DIR]barada-pam/2019-04-21 21:42 -
[DIR]barcode/2019-04-21 21:42 -
[DIR]bareos/2019-04-21 21:42 -
[DIR]baresip/2019-08-14 20:06 -
[DIR]barrage/2019-04-21 21:42 -
[DIR]barrier/2019-08-14 20:06 -
[DIR]bart-view/2019-04-21 21:42 -
[DIR]bart/2019-04-21 21:42 -
[DIR]base-files/2019-08-14 20:06 -
[DIR]base-installer/2019-08-16 02:08 -
[DIR]base-passwd/2019-04-21 21:42 -
[DIR]basemap/2019-04-21 21:42 -
[DIR]basez/2019-08-14 20:06 -
[DIR]bash/2019-04-22 01:32 -
[DIR]basic256/2019-04-21 21:42 -
[DIR]basket/2019-04-21 21:42 -
[DIR]bastet/2019-04-21 21:42 -
[DIR]batmon.app/2019-04-21 21:42 -
[DIR]bb/2019-04-21 21:42 -
[DIR]bbe/2019-04-21 21:42 -
[DIR]bbmail/2019-04-21 21:42 -
[DIR]bbpager/2019-04-21 21:42 -
[DIR]bbrun/2019-06-13 13:58 -
[DIR]bbtime/2019-08-14 20:06 -
[DIR]bc/2019-08-14 20:06 -
[DIR]bchunk/2019-04-21 21:42 -
[DIR]bcolz/2019-04-21 21:42 -
[DIR]bcron/2019-04-21 21:42 -
[DIR]bctoolbox/2019-04-21 21:42 -
[DIR]bdbvu/2019-04-21 21:42 -
[DIR]bdfresize/2019-04-21 21:42 -
[DIR]beads/2019-04-21 21:42 -
[DIR]bear/2019-08-14 20:06 -
[DIR]beav/2019-04-21 21:42 -
[DIR]bedtools/2019-04-21 21:42 -
[DIR]beef/2019-08-14 20:06 -
[DIR]belcard/2019-04-21 21:42 -
[DIR]belenios/2019-04-21 21:42 -
[DIR]belle-sip/2019-04-21 21:42 -
[DIR]belr/2019-04-21 21:42 -
[DIR]ben/2019-04-21 21:42 -
[DIR]berkeley-abc/2019-08-14 20:06 -
[DIR]berkeley-express/2019-04-21 21:42 -
[DIR]berusky2/2019-04-21 21:42 -
[DIR]between/2019-04-21 21:42 -
[DIR]bfbtester/2019-04-21 21:42 -
[DIR]bfs/2019-05-22 13:51 -
[DIR]bglibs/2019-04-21 21:42 -
[DIR]bgpdump/2019-04-21 21:42 -
[DIR]bgpq3/2019-04-21 21:42 -
[DIR]bgw-replstatus/2019-04-21 21:42 -
[DIR]bibclean/2019-04-21 21:42 -
[DIR]bibcursed/2019-04-21 21:42 -
[DIR]bible-kjv/2019-08-14 20:06 -
[DIR]bibledit/2019-06-24 00:03 -
[DIR]biblesync/2019-04-21 21:42 -
[DIR]bibletime/2019-04-21 21:42 -
[DIR]bibtexconv/2019-04-21 21:42 -
[DIR]bibtool/2019-08-17 08:04 -
[DIR]bibutils/2019-04-21 21:42 -
[DIR]bidiv/2019-04-21 21:42 -
[DIR]bifcl/2019-08-09 12:03 -
[DIR]bijiben/2019-04-21 21:42 -
[DIR]billard-gl/2019-04-21 21:42 -
[DIR]billiard/2019-04-21 21:42 -
[DIR]biloba/2019-04-21 21:42 -
[DIR]bin-prot/2019-04-21 21:42 -
[DIR]binaryen/2019-08-14 20:06 -
[DIR]binclock/2019-04-21 21:42 -
[DIR]bind9/2019-04-21 21:42 -
[DIR]bindechexascii/2019-04-21 21:42 -
[DIR]binfmt-support/2019-04-21 21:42 -
[DIR]binfmtc/2019-04-21 21:42 -
[DIR]bing/2019-04-21 21:42 -
[DIR]biniax2/2019-04-21 21:42 -
[DIR]biniou/2019-08-14 20:06 -
[DIR]binkd/2019-04-21 21:42 -
[DIR]bino/2019-04-21 21:42 -
[DIR]binpac/2019-04-21 21:42 -
[DIR]binutils-arm-none-eabi/2019-04-21 21:42 -
[DIR]binutils-avr/2019-04-21 21:42 -
[DIR]binutils-h8300-hms/2019-04-21 21:42 -
[DIR]binutils-m68hc1x/2019-04-21 21:42 -
[DIR]binutils-mingw-w64/2019-08-14 20:06 -
[DIR]binutils-msp430/2019-04-21 21:42 -
[DIR]binutils-xtensa-lx106/2019-04-21 21:42 -
[DIR]binutils-z80/2019-04-21 21:42 -
[DIR]binutils/2019-08-14 20:06 -
[DIR]bio-rainbow/2019-04-21 21:42 -
[DIR]biococoa/2019-04-21 21:42 -
[DIR]biometric-authentication/2019-04-21 21:42 -
[DIR]biosig4c++/2019-04-21 21:42 -
[DIR]biosquid/2019-04-21 21:42 -
[DIR]bip/2019-04-21 21:42 -
[DIR]birdfont/2019-08-14 20:06 -
[DIR]birthday/2019-04-21 21:42 -
[DIR]bison++/2019-04-21 21:42 -
[DIR]bison/2019-08-14 20:06 -
[DIR]bisonc++/2019-08-14 20:06 -
[DIR]bist/2019-04-21 21:42 -
[DIR]bitcoin/2019-04-21 21:42 -
[DIR]bitlbee-facebook/2019-04-21 21:42 -
[DIR]bitlbee-mastodon/2019-04-21 21:42 -
[DIR]bitlbee/2019-04-22 01:32 -
[DIR]bitmeter/2019-04-21 21:42 -
[DIR]bitseq/2019-04-21 21:42 -
[DIR]bittwist/2019-04-21 21:42 -
[DIR]black-box/2019-04-21 21:42 -
[DIR]blackbox/2019-08-14 20:06 -
[DIR]blahtexml/2019-04-21 21:42 -
[DIR]blasr/2019-04-21 21:42 -
[DIR]blepvco/2019-04-21 21:42 -
[DIR]blinken/2019-04-21 21:42 -
[DIR]bliss/2019-08-14 20:06 -
[DIR]blist/2019-04-21 21:42 -
[DIR]blitz++/2019-04-21 21:42 -
[DIR]blobandconquer/2019-04-21 21:42 -
[DIR]blobby/2019-04-21 21:42 -
[DIR]bloboats/2019-04-21 21:42 -
[DIR]blobwars/2019-04-21 21:42 -
[DIR]blockattack/2019-08-14 20:06 -
[DIR]blockout2/2019-04-21 21:42 -
[DIR]blocks-of-the-undead/2019-04-21 21:42 -
[DIR]blop/2019-04-21 21:42 -
[DIR]bls-standalone/2019-04-21 21:42 -
[DIR]blt/2019-04-21 21:42 -
[DIR]bluefish/2019-04-21 21:42 -
[DIR]bmake/2019-04-21 21:42 -
[DIR]bmf/2019-04-21 21:42 -
[DIR]bnfc/2019-04-21 21:42 -
[DIR]boats/2019-04-21 21:42 -
[DIR]bobcat/2019-08-14 20:06 -
[DIR]bochs/2019-04-21 21:42 -
[DIR]bogl/2019-04-21 21:42 -
[DIR]bogofilter/2019-04-21 21:42 -
[DIR]boinc-app-seti/2019-07-07 20:25 -
[DIR]boinc/2019-08-16 20:04 -
[DIR]boinctui/2019-04-21 21:42 -
[DIR]bombardier/2019-04-21 21:42 -
[DIR]bomber/2019-04-21 21:42 -
[DIR]bomberclone/2019-04-21 21:42 -
[DIR]bomstrip/2019-04-21 21:42 -
[DIR]bonnie++/2019-04-21 21:42 -
[DIR]boolector/2019-04-21 21:42 -
[DIR]boolstuff/2019-04-21 21:42 -
[DIR]boost-defaults/2019-08-14 20:06 -
[DIR]boost1.62/2019-04-21 21:42 -
[DIR]boost1.67/2019-04-21 21:42 -
[DIR]bootp/2019-04-21 21:42 -
[DIR]bootpc/2019-04-21 21:42 -
[DIR]bopm/2019-04-21 21:42 -
[DIR]borgbackup/2019-08-14 20:06 -
[DIR]borgmatic/2019-04-21 21:42 -
[DIR]bosh/2019-04-21 21:42 -
[DIR]bosixnet/2019-04-21 21:42 -
[DIR]botan/2019-07-25 18:03 -
[DIR]botch/2019-04-21 21:42 -
[DIR]bottleneck/2019-04-22 01:32 -
[DIR]bottlerocket/2019-04-21 21:42 -
[DIR]bovo/2019-04-21 21:42 -
[DIR]box2d/2019-04-21 21:42 -
[DIR]boxes/2019-04-21 21:42 -
[DIR]boxshade/2019-06-27 19:57 -
[DIR]bplay/2019-04-21 21:42 -
[DIR]bpm-tools/2019-04-21 21:42 -
[DIR]bppphyview/2019-04-21 21:42 -
[DIR]bppsuite/2019-04-21 21:42 -
[DIR]braa/2019-04-21 21:42 -
[DIR]brainparty/2019-04-21 21:42 -
[DIR]brandy/2019-04-21 21:42 -
[DIR]breeze-grub/2019-04-21 21:42 -
[DIR]breeze-gtk/2019-04-21 21:42 -
[DIR]breeze/2019-04-21 21:42 -
[DIR]brewtarget/2019-04-21 21:42 -
[DIR]brial/2019-04-21 21:42 -
[DIR]brian/2019-04-21 21:42 -
[DIR]brickos/2019-04-21 21:42 -
[DIR]brightnessctl/2019-08-14 20:06 -
[DIR]briquolo/2019-04-21 21:42 -
[DIR]brise/2019-04-21 21:42 -
[DIR]brisk-menu/2019-08-15 02:06 -
[DIR]brlaser/2019-04-21 21:42 -
[DIR]brltty/2019-08-14 20:06 -
[DIR]bro-aux/2019-04-21 21:42 -
[DIR]brotli/2019-04-21 21:42 -
[DIR]brp-pacu/2019-04-21 21:42 -
[DIR]brutalchess/2019-04-21 21:42 -
[DIR]bruteforce-salted-openssl/2019-07-07 20:25 -
[DIR]bs1770gain/2019-04-21 21:42 -
[DIR]bsd-finger/2019-07-08 08:15 -
[DIR]bsd-mailx/2019-04-21 21:42 -
[DIR]bsdgames/2019-04-21 21:42 -
[DIR]bsdiff/2019-04-21 21:42 -
[DIR]bsdmainutils/2019-04-21 21:42 -
[DIR]bspwm/2019-08-19 14:13 -
[DIR]btag/2019-04-21 21:42 -
[DIR]btanks/2019-04-21 21:42 -
[DIR]btcheck/2019-04-21 21:42 -
[DIR]bti/2019-08-14 20:06 -
[DIR]btyacc/2019-04-21 21:42 -
[DIR]bucklespring/2019-04-21 21:42 -
[DIR]buddy/2019-04-21 21:42 -
[DIR]buffer/2019-04-21 21:42 -
[DIR]bugsquish/2019-04-21 21:42 -
[DIR]buici-clock/2019-04-21 21:42 -
[DIR]build-essential/2019-04-21 21:42 -
[DIR]buildtorrent/2019-04-21 21:42 -
[DIR]bullet/2019-04-21 21:42 -
[DIR]bulletml/2019-04-21 21:42 -
[DIR]bumprace/2019-04-21 21:42 -
[DIR]burgerspace/2019-04-21 21:42 -
[DIR]busybox/2019-04-21 21:42 -
[DIR]buthead/2019-04-21 21:42 -
[DIR]butteraugli/2019-04-21 21:42 -
[DIR]buzztrax/2019-04-21 21:42 -
[DIR]bvi/2019-04-21 21:42 -
[DIR]bwbar/2019-06-07 19:56 -
[DIR]bwbasic/2019-04-21 21:42 -
[DIR]byacc-j/2019-04-21 21:42 -
[DIR]byacc/2019-04-21 21:42 -
[DIR]bygfoot/2019-04-21 21:42 -
[DIR]bytes-circle/2019-04-21 21:42 -
[DIR]byzanz/2019-04-21 21:42 -
[DIR]bzflag/2019-04-21 21:42 -
[DIR]bzip2/2019-08-14 20:06 -
[DIR]bzr/2019-04-21 21:42 -
[DIR]bzrtp/2019-04-21 21:42 -

Apache Server at ftp.ports.debian.org Port 80